• Join FlightAware (Why Join?)
  • Login
  • US Flag 
07:38PM EDT


 

Airport Tracker/Info


-or-


 

Live Flight TrackerFlight Track Log ✈ SKW5646 ✈ 03-May-2013 ✈ KSFO - KSBA

Flight Track Log - Related Links

Times and Time Zones

All times are in EDT time to prevent confusion due to time zone crossing. See the SKW5646 flight status page for this flight to view local times or setup timezone preferences in your user account.

Time Position Orientation Groundspeed Altitude Reporting Facility
EDT Latitude Longitude Course Direction KTS MPH feet Rate Location/Type
01:34PM 37.6333 -122.3667 208° Southwest 156 180 800  Level Northern Cal TRACON
01:35PM 37.6833 -122.3667 360° North 171 197 2,500 1,680 Climbing Northern Cal TRACON
01:36PM 37.7000 -122.4000 302° West 213 245 4,200 1,680 Climbing Northern Cal TRACON
01:37PM 37.6667 -122.4500 230° Southwest 233 268 6,000 1,380 Climbing Northern Cal TRACON
01:38PM 37.4986 -122.4507 202° Southwest  Level FlightAware Approximate
01:38PM 37.6000 -122.4500 180° South 239 275 7,000  Level Northern Cal TRACON
01:39PM 37.4160 -122.4837 202° Southwest  Level FlightAware Approximate
01:39PM 37.5833 -122.4489 177° South 236 272 7,100  Level Oakland Center
01:40PM 37.3334 -122.5277 208° Southwest  Level FlightAware Approximate
01:40PM 37.5069 -122.4522 182° South 268 308 7,100  Level Oakland Center
01:41PM 37.4111 -122.4486 178° South 283 326 7,100 360 Level Oakland Center
01:42PM 37.3325 -122.4489 180° South 285 328 7,900 900 Climbing Oakland Center
01:43PM 37.2603 -122.4478 179° South 268 308 9,000 960 Climbing Oakland Center
01:44PM 37.1894 -122.4450 178° South 258 297 9,900 840 Climbing Oakland Center
01:45PM 37.1172 -122.4456 180° South 258 297 10,800 900 Climbing Oakland Center
01:46PM 37.0464 -122.4261 168° South 264 304 11,800 1,020 Climbing Oakland Center
01:47PM 36.9892 -122.3711 142° Southeast 262 302 13,000 1,080 Climbing Oakland Center
01:48PM 36.9278 -122.3247 138° Southeast 259 298 14,100 1,080 Climbing Oakland Center
01:49PM 36.9043 -122.2739 138° Southeast  Level FlightAware Approximate
01:49PM 36.8542 -122.2669 148° Southeast 260 299 15,300  Level Oakland Center
01:50PM 36.7919 -122.2186 148° Southeast 262 302 16,300 840 Climbing Oakland Center
01:51PM 36.7289 -122.1708 149° Southeast 266 306 17,100 720 Climbing Oakland Center
01:52PM 36.6658 -122.1225 148° Southeast 266 306 17,900 840 Climbing Oakland Center
01:53PM 36.6019 -122.0739 149° Southeast 267 307 18,900 900 Climbing Oakland Center
01:54PM 36.5383 -122.0247 148° Southeast 268 308 19,800 840 Climbing Oakland Center
01:55PM 36.4753 -121.9789 150° Southeast 265 305 20,700 960 Climbing Oakland Center
01:56PM 36.3928 -121.9375 158° South 265 305 21,800 180 Climbing Oakland Center
01:57PM 36.3203 -121.8953 155° Southeast 287 330 21,100 -420 Descending Oakland Center
01:58PM 36.2392 -121.8544 158° South 312 359 21,000 -60 Descending Oakland Center
01:59PM 36.1642 -121.8147 157° South 294 338 21,000  Level Oakland Center
02:00PM 36.0947 -121.7792 158° South 289 333 21,000  Level Oakland Center
02:01PM 36.0083 -121.7308 156° South 284 327 21,000  Level Oakland Center
02:02PM 35.9353 -121.6931 157° South 283 326 21,000  Level Oakland Center
02:03PM 35.8636 -121.6547 157° South 282 325 21,000  Level Oakland Center
02:04PM 35.7931 -121.6106 153° Southeast 283 326 21,000  Level Oakland Center
02:05PM 35.7403 -121.5397 133° Southeast 281 323 21,000  Level Oakland Center
02:06PM 35.6856 -121.4717 135° Southeast 280 322 21,000  Level Oakland Center
02:07PM 35.6292 -121.4067 137° Southeast 280 322 21,000  Level Oakland Center
02:08PM 35.5611 -121.3314 138° Southeast 276 318 21,000  Level Oakland Center
02:10PM 35.5019 -121.2661 138° Southeast 282 325 21,000  Level Oakland Center
02:11PM 35.4456 -121.2033 138° Southeast 278 320 21,000  Level Oakland Center
02:12PM 35.3897 -121.1369 136° Southeast 279 321 21,000  Level Oakland Center
02:13PM 35.3350 -121.0694 135° Southeast 280 322 21,000  Level Oakland Center
02:14PM 35.2806 -121.0017 135° Southeast 280 322 21,000  Level Oakland Center
02:15PM 35.2261 -120.9328 134° Southeast 282 325 21,000  Level Oakland Center
02:16PM 35.1611 -120.8500 134° Southeast 283 326 21,000  Level Oakland Center
02:17PM 35.1053 -120.7819 135° Southeast 284 327 21,000  Level Oakland Center
02:18PM 35.0492 -120.7147 136° Southeast 285 328 21,000 -600 Level Oakland Center
02:19PM 34.9911 -120.6450 135° Southeast 287 330 19,800 -1,320 Descending Oakland Center
02:20PM 34.9258 -120.5714 137° Southeast 304 350 18,400 -1,260 Descending Oakland Center
02:21PM 34.8658 -120.4978 135° Southeast 309 356 17,300 -1,320 Descending Oakland Center
02:21PM 34.8303 -120.4556 136° Southeast 288 331 16,500 -1,320 Descending Los Angeles Center
02:22PM 34.7989 -120.4147 133° Southeast 294 338 15,700 -1,320 Descending Los Angeles Center
02:22PM 34.7739 -120.3844 135° Southeast 285 328 15,200 -1,380 Descending Los Angeles Center
02:23PM 34.7308 -120.3331 136° Southeast 289 333 14,300 -1,260 Descending Los Angeles Center
02:24PM 34.6694 -120.2667 138° Southeast 294 338 13,000 -1,200 Descending Los Angeles Center
02:25PM 34.5944 -120.2233 155° Southeast 298 343 11,900 -1,140 Descending Los Angeles Center
02:26PM 34.5239 -120.1792 153° Southeast 289 333 10,700 -1,200 Descending Los Angeles Center
02:27PM 34.4622 -120.1231 143° Southeast 280 322 9,500 -1,800 Descending Los Angeles Center
02:28PM 34.4000 -120.0461 134° Southeast 275 316 7,100 -1,740 Descending Los Angeles Center
02:29PM 34.3564 -119.9661 123° Southeast 286 329 6,000 -1,380 Descending Los Angeles Center
02:30PM 34.3356 -119.8622 104° East 240 276 4,000 -1,440 Descending Los Angeles Center
02:31PM 34.3456 -119.8144 76° East 242 278 3,100 -1,080 Descending Los Angeles Center